Time;durP1;ratioP1;P1;durP2;ratioP2;P2;SDS_P1;SDS_P2;PMS_P1;PMS_P2;Temp;Humidity;BMP_temperature;BMP_pressure;BME280_temperature;BME280_humidity;BME280_pressure;Samples;Min_cycle;Max_cycle;Signal;HPM_P1;HPM_P2
2023/09/12 00:01:17;;;;;;;0.03;0.03;;;;;;;17.39;71.61;97226.97;5026344;28;20463;-69
2023/09/12 00:03:44;;;;;;;0.05;0.03;;;;;;;17.56;70.79;97225.88;5025463;28;20054;-69
2023/09/12 00:06:12;;;;;;;0.13;0.13;;;;;;;17.65;70.29;97220.91;5029607;28;20104;-69
2023/09/12 00:08:40;;;;;;;0.10;0.10;;;;;;;17.68;70.14;97225.81;5029819;28;20045;-68
2023/09/12 00:11:11;;;;;;;0.10;0.10;;;;;;;17.76;69.82;97229.97;5030730;28;20073;-68
2023/09/12 00:13:39;;;;;;;0.20;0.20;;;;;;;17.66;70.28;97237.94;5029336;28;20099;-69
2023/09/12 00:16:09;;;;;;;0.13;0.13;;;;;;;17.37;71.26;97238.03;5028362;28;20044;-68
2023/09/12 00:18:37;;;;;;;0.10;0.10;;;;;;;17.29;71.77;97238.44;5033201;28;20038;-68
2023/09/12 00:21:05;;;;;;;0.13;0.13;;;;;;;17.17;72.22;97237.69;5033486;28;20052;-68
2023/09/12 00:23:32;;;;;;;0.10;0.10;;;;;;;17.11;72.56;97244.91;5034165;28;20045;-68
2023/09/12 00:26:00;;;;;;;0.20;0.20;;;;;;;17.32;71.60;97240.66;5034250;28;20041;-68
2023/09/12 00:28:29;;;;;;;0.10;0.10;;;;;;;17.26;71.75;97244.31;5034197;28;20049;-68
2023/09/12 00:30:56;;;;;;;0.17;0.17;;;;;;;17.24;71.69;97247.25;5017508;28;20104;-68
2023/09/12 00:33:24;;;;;;;0.22;0.22;;;;;;;17.17;72.04;97245.78;5029314;28;20110;-68
2023/09/12 00:35:52;;;;;;;0.20;0.13;;;;;;;17.11;72.20;97244.09;5033504;28;20033;-68
2023/09/12 00:38:20;;;;;;;0.10;0.10;;;;;;;17.08;72.38;97239.19;5033341;28;20041;-70
2023/09/12 00:40:47;;;;;;;0.13;0.13;;;;;;;17.07;72.28;97235.66;5028200;28;20041;-68
2023/09/12 00:43:16;;;;;;;0.20;0.20;;;;;;;17.07;72.42;97232.97;5019377;28;20045;-68
2023/09/12 00:45:45;;;;;;;0.10;0.10;;;;;;;17.20;71.86;97231.81;5031825;28;20059;-68
2023/09/12 00:48:13;;;;;;;0.15;0.15;;;;;;;17.25;71.66;97235.41;5033485;28;20420;-67
2023/09/12 00:50:42;;;;;;;0.10;0.10;;;;;;;17.16;72.11;97226.09;5026125;28;20131;-68
2023/09/12 00:53:09;;;;;;;0.20;0.20;;;;;;;17.02;72.56;97223.97;5025052;28;20052;-68
2023/09/12 00:55:38;;;;;;;0.30;0.30;;;;;;;16.95;73.09;97215.22;5023549;28;20462;-67
2023/09/12 00:58:07;;;;;;;0.15;0.15;;;;;;;16.99;72.80;97219.88;5033144;28;20412;-68
2023/09/12 01:00:35;;;;;;;0.20;0.20;;;;;;;16.81;73.42;97212.84;5025357;28;20132;-70
2023/09/12 01:03:05;;;;;;;0.13;0.13;;;;;;;16.78;73.53;97217.91;5033126;28;20041;-69
2023/09/12 01:05:33;;;;;;;0.10;0.10;;;;;;;16.93;72.73;97215.47;5032301;28;20065;-68
2023/09/12 01:08:01;;;;;;;0.15;0.15;;;;;;;16.87;72.94;97216.44;5028901;28;20046;-68
2023/09/12 01:10:30;;;;;;;0.05;0.05;;;;;;;16.95;72.66;97220.59;5030605;28;20083;-67
2023/09/12 01:12:57;;;;;;;0.10;0.10;;;;;;;16.96;72.50;97225.75;5028239;28;20041;-68
2023/09/12 01:15:25;;;;;;;0.03;0.03;;;;;;;16.92;72.28;97230.03;5028084;28;20049;-67
2023/09/12 01:17:53;;;;;;;0.20;0.20;;;;;;;16.75;72.80;97235.38;5023334;28;20044;-67
2023/09/12 01:20:25;;;;;;;0.10;0.10;;;;;;;16.86;72.20;97230.97;5033199;28;20124;-67
2023/09/12 01:22:57;;;;;;;0.10;0.10;;;;;;;17.03;71.54;97237.19;5027232;28;20071;-67
2023/09/12 01:25:39;;;;;;;0.40;0.40;;;;;;;16.86;71.86;97242.59;5032326;28;20052;-68
2023/09/12 01:28:10;;;;;;;0.10;0.10;;;;;;;16.67;72.74;97240.34;5021473;28;20136;-68
2023/09/12 01:30:39;;;;;;;0.10;0.10;;;;;;;16.55;72.83;97234.16;5027736;28;20042;-67
2023/09/12 01:33:07;;;;;;;0.13;0.13;;;;;;;16.56;72.89;97241.19;5023230;28;20055;-68
2023/09/12 01:35:35;;;;;;;0.13;0.13;;;;;;;16.61;72.71;97244.78;5021456;28;20060;-68
2023/09/12 01:38:02;;;;;;;0.30;0.20;;;;;;;16.50;72.94;97235.72;5032419;28;20037;-68
2023/09/12 01:40:35;;;;;;;0.22;0.22;;;;;;;16.48;73.60;97237.00;5029815;28;20136;-68
2023/09/12 01:43:05;;;;;;;0.20;0.20;;;;;;;16.43;73.77;97229.63;5018191;28;20049;-68
2023/09/12 01:45:35;;;;;;;0.13;0.13;;;;;;;16.51;73.34;97229.25;5028575;28;20124;-70
2023/09/12 01:48:04;;;;;;;0.13;0.13;;;;;;;16.49;73.44;97231.38;5029681;28;20103;-68
2023/09/12 01:50:32;;;;;;;0.30;0.30;;;;;;;16.40;73.71;97229.31;5029754;28;20435;-68
2023/09/12 01:53:00;;;;;;;0.13;0.13;;;;;;;16.39;73.54;97235.75;5032309;28;20041;-68
2023/09/12 01:55:28;;;;;;;0.20;0.20;;;;;;;16.42;73.42;97236.09;5031789;28;20045;-68
2023/09/12 01:57:56;;;;;;;0.10;0.10;;;;;;;16.48;72.95;97228.94;5026178;28;20057;-68
2023/09/12 02:00:24;;;;;;;0.10;0.10;;;;;;;16.50;72.66;97232.22;5018705;28;20081;-68
2023/09/12 02:02:54;;;;;;;0.10;0.10;;;;;;;16.45;72.77;97227.53;5031790;28;20056;-68
2023/09/12 02:05:23;;;;;;;0.03;0.03;;;;;;;16.38;73.05;97223.34;5026746;28;20045;-69
2023/09/12 02:07:51;;;;;;;0.03;0.03;;;;;;;16.41;72.94;97225.53;5027202;28;20157;-68
2023/09/12 02:10:19;;;;;;;0.15;0.15;;;;;;;16.52;72.47;97224.69;5020144;28;20046;-69
2023/09/12 02:12:47;;;;;;;0.30;0.30;;;;;;;16.50;72.44;97221.44;5031017;28;20124;-69
2023/09/12 02:15:14;;;;;;;0.10;0.10;;;;;;;16.50;72.31;97224.13;5024072;28;20045;-68
2023/09/12 02:17:42;;;;;;;0.10;0.10;;;;;;;16.52;72.13;97219.28;5025295;28;20125;-68
2023/09/12 02:20:12;;;;;;;0.10;0.10;;;;;;;16.35;72.71;97221.13;5032002;28;20054;-68
2023/09/12 02:22:39;;;;;;;0.13;0.13;;;;;;;16.29;72.83;97214.84;5024550;28;20133;-68
2023/09/12 02:25:09;;;;;;;0.10;0.10;;;;;;;16.29;72.96;97217.53;5031686;28;20496;-68
2023/09/12 02:27:36;;;;;;;0.20;0.20;;;;;;;16.43;72.16;97221.56;5022603;28;20128;-68
2023/09/12 02:30:05;;;;;;;0.03;0.03;;;;;;;16.26;72.95;97225.25;5021075;28;20050;-68
2023/09/12 02:32:33;;;;;;;0.03;0.03;;;;;;;16.34;72.65;97214.91;5028995;28;20127;-68
2023/09/12 02:35:00;;;;;;;0.13;0.13;;;;;;;16.38;72.19;97218.78;5031488;28;20132;-68
2023/09/12 02:37:29;;;;;;;0.10;0.10;;;;;;;16.27;72.59;97216.13;5032207;28;20137;-67
2023/09/12 02:39:57;;;;;;;0.15;0.15;;;;;;;16.12;73.00;97213.94;5038133;28;20120;-67
2023/09/12 02:42:25;;;;;;;0.10;0.10;;;;;;;16.20;72.75;97220.81;5027551;28;20140;-68
2023/09/12 02:44:53;;;;;;;0.10;0.10;;;;;;;16.32;72.22;97217.03;5046681;28;20042;-68
2023/09/12 02:47:21;;;;;;;0.10;0.10;;;;;;;16.18;72.60;97220.25;5035641;28;20095;-68
2023/09/12 02:49:48;;;;;;;0.20;0.20;;;;;;;15.94;73.53;97222.19;5032636;28;20067;-70
2023/09/12 02:52:16;;;;;;;0.03;0.03;;;;;;;15.87;74.01;97221.53;5027596;28;20092;-68
2023/09/12 02:54:45;;;;;;;0.30;0.30;;;;;;;15.94;73.51;97214.13;5021557;28;20050;-70
2023/09/12 02:57:13;;;;;;;0.30;0.30;;;;;;;15.85;73.88;97216.38;5011505;28;20124;-68
2023/09/12 02:59:40;;;;;;;0.25;0.25;;;;;;;15.87;73.63;97211.56;5028146;28;20045;-68
2023/09/12 03:02:08;;;;;;;0.20;0.20;;;;;;;15.73;74.08;97213.69;5020577;28;20037;-68
2023/09/12 03:04:36;;;;;;;0.13;0.10;;;;;;;15.57;74.87;97221.69;5027485;28;20057;-67
2023/09/12 03:07:04;;;;;;;0.25;0.25;;;;;;;15.51;74.96;97218.00;5018052;28;20081;-68
2023/09/12 03:09:32;;;;;;;0.20;0.20;;;;;;;15.45;75.23;97232.41;5022105;28;20044;-67
2023/09/12 03:12:03;;;;;;;0.20;0.20;;;;;;;15.48;75.27;97221.16;5026786;28;20048;-67
2023/09/12 03:14:32;;;;;;;0.00;0.00;;;;;;;15.53;75.08;97226.66;5026404;28;20562;-68
2023/09/12 03:17:00;;;;;;;0.20;0.20;;;;;;;15.65;74.79;97216.75;5030461;28;20121;-68
2023/09/12 03:19:28;;;;;;;0.20;0.20;;;;;;;15.74;74.34;97218.03;5027647;28;20544;-68
2023/09/12 03:21:56;;;;;;;0.22;0.22;;;;;;;15.71;74.51;97212.28;5021620;28;20128;-68
2023/09/12 03:24:25;;;;;;;0.13;0.13;;;;;;;15.67;74.54;97205.75;5018826;28;20045;-67
2023/09/12 03:26:52;;;;;;;0.17;0.17;;;;;;;15.70;74.38;97207.97;5021549;28;20042;-67
2023/09/12 03:29:22;;;;;;;0.22;0.22;;;;;;;15.82;73.77;97202.56;5022469;28;20686;-67
2023/09/12 03:31:50;;;;;;;0.13;0.13;;;;;;;15.71;74.19;97198.84;5028564;28;20584;-67
2023/09/12 03:34:18;;;;;;;0.10;0.10;;;;;;;15.52;75.17;97200.00;5026416;28;20073;-67
2023/09/12 03:36:46;;;;;;;0.13;0.13;;;;;;;15.53;75.05;97190.88;5018840;28;20132;-66
2023/09/12 03:39:14;;;;;;;0.17;0.17;;;;;;;15.52;75.10;97187.38;5030664;28;20049;-68
2023/09/12 03:41:42;;;;;;;0.03;0.03;;;;;;;15.65;74.59;97184.47;5019672;28;20068;-68
2023/09/12 03:44:10;;;;;;;0.13;0.13;;;;;;;15.68;74.45;97188.53;5023305;28;20565;-68
2023/09/12 03:46:40;;;;;;;0.20;0.20;;;;;;;15.66;74.39;97191.50;5022563;28;20500;-68
2023/09/12 03:49:08;;;;;;;0.20;0.20;;;;;;;15.72;73.93;97195.09;5033142;28;20405;-69
2023/09/12 03:51:37;;;;;;;0.13;0.13;;;;;;;15.62;74.26;97194.88;5031727;28;20041;-68
2023/09/12 03:54:05;;;;;;;0.22;0.22;;;;;;;15.63;74.33;97197.34;5029358;28;20520;-68
2023/09/12 03:56:33;;;;;;;0.30;0.30;;;;;;;15.56;74.79;97191.28;5029776;28;20185;-69
2023/09/12 03:59:01;;;;;;;0.13;0.13;;;;;;;15.56;74.89;97191.28;5027961;28;20135;-69
2023/09/12 04:01:29;;;;;;;0.13;0.13;;;;;;;15.50;74.89;97200.22;5022000;28;20049;-69
2023/09/12 04:03:58;;;;;;;0.13;0.13;;;;;;;15.51;75.02;97195.66;5020289;28;20057;-69
2023/09/12 04:06:30;;;;;;;0.30;0.30;;;;;;;15.66;74.40;97198.75;5024835;28;20050;-69
2023/09/12 04:08:57;;;;;;;0.13;0.13;;;;;;;15.61;74.63;97194.06;5034348;28;20111;-69
2023/09/12 04:11:25;;;;;;;0.13;0.13;;;;;;;15.45;74.82;97205.53;5030914;28;20463;-69
2023/09/12 04:14:10;;;;;;;0.25;0.25;;;;;;;15.46;74.77;97207.16;5033752;28;20045;-69
2023/09/12 04:16:38;;;;;;;0.20;0.20;;;;;;;15.54;74.65;97208.66;5033590;28;20052;-69
2023/09/12 04:19:07;;;;;;;0.03;0.03;;;;;;;15.56;74.49;97215.47;5028859;28;20125;-69
2023/09/12 04:21:35;;;;;;;0.20;0.20;;;;;;;15.40;75.72;97208.06;5032902;28;20424;-69
2023/09/12 04:24:03;;;;;;;0.13;0.13;;;;;;;15.30;75.61;97214.03;5027844;28;20045;-69
2023/09/12 04:26:31;;;;;;;0.13;0.13;;;;;;;15.16;76.18;97220.69;5023946;28;20431;-69
2023/09/12 04:28:58;;;;;;;0.20;0.20;;;;;;;15.07;76.19;97209.47;5022931;28;20091;-69
2023/09/12 04:31:26;;;;;;;0.20;0.20;;;;;;;15.01;76.39;97206.91;5020282;28;20128;-68
2023/09/12 04:33:54;;;;;;;0.35;0.35;;;;;;;15.03;76.19;97212.88;5016135;28;20045;-70
2023/09/12 04:36:23;;;;;;;0.13;0.13;;;;;;;14.97;76.20;97209.22;5027827;28;20053;-70
2023/09/12 04:38:51;;;;;;;0.13;0.13;;;;;;;15.02;76.30;97206.69;5033097;28;20124;-70
2023/09/12 04:41:19;;;;;;;0.22;0.22;;;;;;;15.18;75.69;97213.22;5033480;28;20047;-69
2023/09/12 04:43:47;;;;;;;0.20;0.20;;;;;;;15.15;75.60;97212.88;5023023;28;20128;-69
2023/09/12 04:46:14;;;;;;;0.20;0.20;;;;;;;15.08;75.97;97207.59;5022830;28;20088;-69
2023/09/12 04:48:43;;;;;;;0.03;0.03;;;;;;;15.07;76.02;97214.03;5022824;28;20087;-69
2023/09/12 04:51:12;;;;;;;0.20;0.20;;;;;;;15.01;76.21;97209.59;5025526;28;20053;-69
2023/09/12 04:53:41;;;;;;;0.10;0.10;;;;;;;14.94;76.18;97217.78;5024684;28;20045;-69
2023/09/12 04:56:09;;;;;;;0.13;0.13;;;;;;;14.92;76.20;97211.81;5033524;28;20041;-70
2023/09/12 04:58:38;;;;;;;0.10;0.10;;;;;;;14.90;76.30;97219.28;5024738;28;20100;-70
2023/09/12 05:01:05;;;;;;;0.17;0.17;;;;;;;14.87;76.43;97225.09;5027574;28;20075;-69
2023/09/12 05:03:33;;;;;;;0.10;0.10;;;;;;;14.91;76.31;97220.91;5021732;28;20088;-68
2023/09/12 05:06:02;;;;;;;0.20;0.20;;;;;;;14.95;76.19;97223.97;5034214;28;20041;-69
2023/09/12 05:08:30;;;;;;;0.20;0.15;;;;;;;14.90;76.69;97216.59;5024207;28;20399;-68
2023/09/12 05:10:59;;;;;;;0.05;0.05;;;;;;;14.98;76.56;97215.41;5019196;28;20497;-68
2023/09/12 05:13:26;;;;;;;0.03;0.03;;;;;;;14.91;76.61;97215.53;5017939;28;20092;-69
2023/09/12 05:15:55;;;;;;;0.13;0.13;;;;;;;15.03;76.21;97223.63;5020427;28;20520;-68
2023/09/12 05:18:24;;;;;;;0.20;0.20;;;;;;;14.85;76.51;97216.44;5019915;28;20453;-69
2023/09/12 05:20:52;;;;;;;0.10;0.10;;;;;;;14.87;76.69;97222.41;5021105;28;20136;-69
2023/09/12 05:23:19;;;;;;;0.22;0.22;;;;;;;15.04;76.53;97225.25;5024108;28;20361;-69
2023/09/12 05:25:47;;;;;;;0.22;0.22;;;;;;;15.12;76.03;97229.47;5021489;28;20720;-68
2023/09/12 05:28:17;;;;;;;0.10;0.10;;;;;;;15.11;76.02;97225.97;5025430;28;20509;-68
2023/09/12 05:30:48;;;;;;;0.13;0.13;;;;;;;15.14;76.37;97222.00;5021908;28;20442;-68
2023/09/12 05:33:16;;;;;;;0.13;0.13;;;;;;;15.11;76.57;97227.84;5032938;28;20136;-68
2023/09/12 05:35:45;;;;;;;0.17;0.17;;;;;;;15.11;76.28;97225.16;5030810;28;20045;-68
2023/09/12 05:38:12;;;;;;;0.32;0.32;;;;;;;15.12;76.16;97221.41;5032778;28;20132;-68
2023/09/12 05:40:40;;;;;;;0.10;0.10;;;;;;;15.30;75.68;97226.66;5032019;28;20047;-68
2023/09/12 05:43:08;;;;;;;0.17;0.17;;;;;;;15.25;76.13;97229.25;5021331;28;20137;-68
2023/09/12 05:45:37;;;;;;;0.22;0.22;;;;;;;15.40;75.48;97233.09;5029329;28;20500;-68
2023/09/12 05:48:05;;;;;;;0.22;0.22;;;;;;;15.51;75.59;97236.03;5023292;28;20045;-68
2023/09/12 05:50:34;;;;;;;0.25;0.25;;;;;;;15.55;75.54;97229.16;5019951;28;20052;-68
2023/09/12 05:53:02;;;;;;;0.20;0.20;;;;;;;15.65;75.15;97238.28;5032199;28;20048;-68
2023/09/12 05:55:30;;;;;;;0.20;0.20;;;;;;;15.70;75.13;97240.25;5022984;28;20045;-69
2023/09/12 05:57:58;;;;;;;0.20;0.20;;;;;;;15.71;75.38;97245.41;5015715;28;20057;-68
2023/09/12 06:00:26;;;;;;;0.20;0.20;;;;;;;15.81;75.37;97244.78;5020922;28;20413;-68
2023/09/12 06:02:55;;;;;;;0.13;0.13;;;;;;;15.92;75.37;97240.44;5021979;28;20037;-68
2023/09/12 06:05:23;;;;;;;0.03;0.03;;;;;;;16.06;75.28;97231.88;5019478;28;20464;-68
2023/09/12 06:07:50;;;;;;;0.20;0.20;;;;;;;16.04;75.26;97242.06;5031760;28;20499;-68
2023/09/12 06:10:18;;;;;;;0.20;0.17;;;;;;;16.09;75.88;97242.16;5031718;28;20394;-68
2023/09/12 06:12:46;;;;;;;0.20;0.20;;;;;;;16.10;76.00;97240.28;5031492;28;20038;-68
2023/09/12 06:15:14;;;;;;;0.15;0.15;;;;;;;16.18;75.82;97239.13;5031773;28;20045;-68
2023/09/12 06:17:42;;;;;;;0.10;0.10;;;;;;;16.27;75.84;97233.09;5031481;28;20046;-68
2023/09/12 06:20:12;;;;;;;0.17;0.17;;;;;;;16.29;75.73;97241.78;5032080;28;20373;-68
2023/09/12 06:22:39;;;;;;;0.10;0.10;;;;;;;16.33;76.07;97234.84;5031735;28;20076;-68
2023/09/12 06:25:08;;;;;;;0.13;0.13;;;;;;;16.45;75.23;97237.47;5031987;28;20493;-68
2023/09/12 06:27:35;;;;;;;0.15;0.15;;;;;;;16.53;75.03;97237.91;5031439;28;20041;-68
2023/09/12 06:30:04;;;;;;;0.20;0.20;;;;;;;16.63;75.03;97249.97;5031733;28;20759;-68
2023/09/12 06:32:31;;;;;;;0.20;0.20;;;;;;;16.77;74.87;97248.63;5031552;28;20056;-68
2023/09/12 06:34:59;;;;;;;0.30;0.30;;;;;;;16.78;74.75;97239.47;5023647;28;20777;-68
2023/09/12 06:37:28;;;;;;;0.13;0.13;;;;;;;16.92;74.83;97245.38;5031398;28;20137;-68
2023/09/12 06:39:56;;;;;;;0.20;0.20;;;;;;;17.02;74.19;97243.69;5031352;28;20406;-69
2023/09/12 06:42:23;;;;;;;0.38;0.38;;;;;;;17.08;73.85;97244.56;5031333;28;20052;-68
2023/09/12 06:44:51;;;;;;;0.17;0.17;;;;;;;17.20;73.80;97246.13;5021592;28;20065;-68
2023/09/12 06:47:19;;;;;;;0.22;0.22;;;;;;;17.24;73.11;97246.44;5031599;28;20041;-69
2023/09/12 06:49:46;;;;;;;0.20;0.13;;;;;;;17.34;73.41;97248.50;5031325;28;20045;-68
2023/09/12 06:52:20;;;;;;;0.20;0.20;;;;;;;17.41;73.07;97251.84;5026342;28;20069;-68
2023/09/12 06:54:49;;;;;;;0.15;0.15;;;;;;;17.48;73.03;97249.78;5021495;28;20052;-68
2023/09/12 06:57:17;;;;;;;0.15;0.15;;;;;;;17.54;72.90;97260.44;5031132;28;20520;-69
2023/09/12 06:59:44;;;;;;;0.17;0.17;;;;;;;17.56;73.23;97252.88;5030992;28;20057;-68
2023/09/12 07:02:12;;;;;;;0.13;0.13;;;;;;;17.65;73.10;97247.91;5030918;28;20042;-68
2023/09/12 07:04:40;;;;;;;0.22;0.22;;;;;;;17.70;73.03;97256.09;5030779;28;20045;-68
2023/09/12 07:07:08;;;;;;;0.10;0.10;;;;;;;17.75;73.18;97252.66;5031253;28;20408;-68
2023/09/12 07:09:36;;;;;;;0.17;0.17;;;;;;;17.87;73.03;97259.56;5030988;28;20053;-68
2023/09/12 07:12:06;;;;;;;0.03;0.03;;;;;;;17.90;72.96;97253.66;5031015;28;20067;-69
2023/09/12 07:14:33;;;;;;;0.10;0.10;;;;;;;17.97;72.71;97256.19;5030866;28;20052;-68
2023/09/12 07:17:01;;;;;;;0.20;0.20;;;;;;;18.06;72.79;97251.19;5030858;28;20068;-69
2023/09/12 07:19:29;;;;;;;0.10;0.10;;;;;;;18.11;72.52;97245.84;5031035;28;20048;-69
2023/09/12 07:21:56;;;;;;;0.20;0.20;;;;;;;18.22;72.38;97244.88;5032038;28;20083;-69
2023/09/12 07:24:25;;;;;;;0.10;0.10;;;;;;;18.32;72.28;97240.44;5035456;28;20048;-68
2023/09/12 07:26:53;;;;;;;0.03;0.03;;;;;;;18.44;71.92;97240.28;5034744;28;20541;-69
2023/09/12 07:29:22;;;;;;;0.10;0.10;;;;;;;18.59;71.91;97245.06;5036031;28;20041;-69
2023/09/12 07:31:52;;;;;;;0.20;0.20;;;;;;;18.65;71.58;97235.94;5035853;28;20047;-68
2023/09/12 07:34:21;;;;;;;0.10;0.10;;;;;;;18.73;71.09;97235.47;5037063;28;20057;-68
2023/09/12 07:36:48;;;;;;;0.10;0.10;;;;;;;18.83;70.40;97226.66;5035341;28;20045;-68
2023/09/12 07:39:17;;;;;;;0.00;0.00;;;;;;;18.87;70.08;97233.19;5036563;28;20493;-68
2023/09/12 07:41:44;;;;;;;0.10;0.10;;;;;;;18.96;69.76;97231.66;5034792;28;20647;-69
2023/09/12 07:44:15;;;;;;;0.10;0.10;;;;;;;19.10;69.96;97232.06;5034478;28;20051;-68
2023/09/12 07:46:44;;;;;;;0.13;0.13;;;;;;;19.23;69.37;97232.41;5027364;28;20037;-68
2023/09/12 07:49:11;;;;;;;0.13;0.13;;;;;;;19.35;69.33;97224.94;5034598;28;20049;-69
2023/09/12 07:51:39;;;;;;;0.10;0.10;;;;;;;19.46;69.07;97233.13;5034364;28;20041;-69
2023/09/12 07:54:07;;;;;;;0.10;0.10;;;;;;;19.56;69.68;97228.63;5034113;28;20053;-69
2023/09/12 07:56:35;;;;;;;0.08;0.08;;;;;;;19.66;69.15;97233.28;5034749;28;20049;-68
2023/09/12 07:59:03;;;;;;;0.10;0.10;;;;;;;19.79;nan;97238.25;5026309;28;20055;-68
2023/09/12 08:01:30;;;;;;;0.17;0.17;;;;;;;19.95;68.67;97233.72;5034123;28;20042;-67
2023/09/12 08:03:59;;;;;;;0.10;0.10;;;;;;;20.03;68.03;97230.53;5033927;28;20144;-68
2023/09/12 08:06:27;;;;;;;0.10;0.10;;;;;;;20.09;68.46;97227.56;5034195;28;20084;-68
2023/09/12 08:08:55;;;;;;;0.03;0.03;;;;;;;20.23;67.93;97235.22;5034015;28;20047;-67
2023/09/12 08:11:22;;;;;;;0.13;0.13;;;;;;;20.30;67.73;97236.59;5034340;28;20417;-68
2023/09/12 08:13:50;;;;;;;0.10;0.10;;;;;;;20.39;67.36;97226.91;5033598;28;20048;-68
2023/09/12 08:16:18;;;;;;;0.03;0.03;;;;;;;20.49;67.50;97232.34;5033957;28;20408;-68
2023/09/12 08:18:46;;;;;;;0.20;0.20;;;;;;;20.61;66.90;97234.00;5034179;28;20042;-68
2023/09/12 08:21:15;;;;;;;0.10;0.10;;;;;;;20.73;67.11;97234.59;5034209;28;20029;-69
2023/09/12 08:23:42;;;;;;;0.10;0.10;;;;;;;20.82;66.28;97235.69;5033694;28;20133;-68
2023/09/12 08:26:11;;;;;;;0.10;0.10;;;;;;;20.92;66.49;97235.69;5033816;28;20116;-68
2023/09/12 08:28:38;;;;;;;0.10;0.10;;;;;;;21.04;66.27;97238.16;5033686;28;20088;-68
2023/09/12 08:31:06;;;;;;;0.25;0.03;;;;;;;21.16;65.45;97244.97;5033588;28;20536;-68
2023/09/12 08:33:34;;;;;;;0.05;0.05;;;;;;;21.30;65.48;97241.72;5032940;28;20447;-68
2023/09/12 08:36:02;;;;;;;0.10;0.10;;;;;;;21.46;65.11;97248.78;5033483;28;20045;-68
2023/09/12 08:38:30;;;;;;;0.10;0.10;;;;;;;21.57;64.78;97236.81;5033657;28;20068;-68
2023/09/12 08:40:58;;;;;;;0.20;0.20;;;;;;;21.68;64.78;97241.16;5031770;28;20029;-68
2023/09/12 08:43:26;;;;;;;0.08;0.08;;;;;;;21.80;64.61;97246.31;5024858;28;20041;-68
2023/09/12 08:45:54;;;;;;;0.15;0.15;;;;;;;21.99;63.34;97250.09;5029482;28;20053;-68
2023/09/12 08:48:23;;;;;;;0.10;0.10;;;;;;;22.05;63.62;97240.00;5033535;28;20408;-68
2023/09/12 08:50:53;;;;;;;0.03;0.03;;;;;;;22.12;63.14;97241.34;5024455;28;20041;-68
2023/09/12 08:53:22;;;;;;;0.10;0.10;;;;;;;22.21;62.98;97242.41;5023419;28;20497;-68
2023/09/12 08:55:53;;;;;;;0.03;0.03;;;;;;;22.30;63.14;97238.03;5028758;28;20107;-68
2023/09/12 08:58:21;;;;;;;0.13;0.13;;;;;;;22.45;62.02;97247.19;5033190;28;20047;-68
2023/09/12 09:00:49;;;;;;;0.10;0.10;;;;;;;22.62;61.75;97245.75;5031262;28;20084;-67
2023/09/12 09:03:17;;;;;;;0.05;0.05;;;;;;;22.66;59.56;97244.09;5033095;28;20046;-68
2023/09/12 09:05:45;;;;;;;0.03;0.03;;;;;;;22.72;59.45;97242.16;5032915;28;20051;-69
2023/09/12 09:08:13;;;;;;;0.10;0.10;;;;;;;22.78;59.24;97238.34;5032932;28;20037;-69
2023/09/12 09:10:57;;;;;;;0.10;0.10;;;;;;;22.84;58.55;97239.91;5032763;28;20041;-68
2023/09/12 09:13:25;;;;;;;0.10;0.10;;;;;;;22.90;58.91;97233.38;5033079;28;20037;-68
2023/09/12 09:16:11;;;;;;;0.20;0.10;;;;;;;22.96;57.52;97226.78;5032524;28;20034;-68
2023/09/12 09:18:53;;;;;;;0.10;0.10;;;;;;;23.06;57.38;97237.59;5032785;28;20075;-68
2023/09/12 09:21:24;;;;;;;0.10;0.10;;;;;;;23.15;56.78;97239.75;5027973;28;20053;-68
2023/09/12 09:23:52;;;;;;;0.10;0.10;;;;;;;23.21;53.93;97230.41;5034444;28;20037;-68
2023/09/12 09:26:21;;;;;;;0.00;0.00;;;;;;;23.33;55.08;97218.06;5034710;28;20037;-68
2023/09/12 09:29:03;;;;;;;0.03;0.03;;;;;;;23.41;57.59;97227.53;5034103;28;20037;-68
2023/09/12 09:31:31;;;;;;;0.00;0.00;;;;;;;23.49;55.30;97226.09;5029224;28;20116;-68
2023/09/12 09:34:01;;;;;;;0.08;0.08;;;;;;;23.56;57.10;97224.69;5032246;28;20041;-68
2023/09/12 09:36:29;;;;;;;0.03;0.03;;;;;;;23.64;56.02;97226.81;5027987;28;20075;-68
2023/09/12 09:38:59;;;;;;;0.10;0.10;;;;;;;23.78;54.33;97225.00;5032459;28;20123;-68
2023/09/12 09:41:28;;;;;;;0.03;0.00;;;;;;;23.98;52.99;97229.44;5032492;28;20037;-68
2023/09/12 09:43:56;;;;;;;0.05;0.03;;;;;;;24.10;53.06;97220.84;5032320;28;20041;-68
2023/09/12 09:46:24;;;;;;;0.05;0.05;;;;;;;24.12;52.52;97221.38;5032879;28;20055;-68
2023/09/12 09:48:52;;;;;;;0.08;0.08;;;;;;;24.17;52.36;97213.13;5031036;28;20084;-68
2023/09/12 09:51:20;;;;;;;0.10;0.10;;;;;;;24.26;52.16;97221.53;5025650;28;20095;-68
2023/09/12 09:53:52;;;;;;;0.03;0.03;;;;;;;24.43;49.24;97219.91;5031813;28;20041;-67
2023/09/12 09:56:19;;;;;;;;;;;;;;;24.59;48.42;97215.09;5032727;28;20090;-68
2023/09/12 09:58:49;;;;;;;0.08;0.08;;;;;;;24.71;48.49;97212.72;5031892;28;20015;-68
2023/09/12 10:01:20;;;;;;;0.03;0.03;;;;;;;24.78;48.70;97217.81;5032044;28;20041;-68
2023/09/12 10:03:48;;;;;;;0.10;0.10;;;;;;;24.90;47.33;97214.66;5031880;28;20045;-68
2023/09/12 10:06:17;;;;;;;0.03;0.03;;;;;;;24.94;47.34;97208.31;5032160;28;20049;-68
2023/09/12 10:08:46;;;;;;;0.00;0.00;;;;;;;24.98;48.21;97209.34;5032685;28;20421;-69
2023/09/12 10:11:16;;;;;;;0.10;0.10;;;;;;;25.02;48.83;97215.03;5033082;28;20045;-69
2023/09/12 10:13:50;;;;;;;0.10;0.10;;;;;;;25.04;47.92;97202.69;5034547;28;20052;-68
2023/09/12 10:16:18;;;;;;;0.03;0.03;;;;;;;25.10;48.35;97209.72;5033370;28;20037;-68
2023/09/12 10:18:51;;;;;;;0.10;0.10;;;;;;;25.15;47.19;97198.69;5031960;28;20041;-68
2023/09/12 10:21:25;;;;;;;0.05;0.05;;;;;;;25.21;48.71;97205.72;5027195;28;20052;-68
2023/09/12 10:23:53;;;;;;;0.10;0.10;;;;;;;25.29;48.01;97192.47;5033270;28;20061;-68
2023/09/12 10:26:21;;;;;;;0.10;0.10;;;;;;;25.42;47.13;97197.97;5033140;28;20052;-68
2023/09/12 10:28:52;;;;;;;0.00;0.00;;;;;;;25.81;45.26;97194.84;5031824;28;20071;-68
2023/09/12 10:31:20;;;;;;;0.10;0.10;;;;;;;26.20;44.02;97193.50;5031551;28;20045;-69
2023/09/12 10:33:48;;;;;;;0.10;0.10;;;;;;;26.40;43.17;97190.38;5031437;28;20057;-69
2023/09/12 10:36:18;;;;;;;0.10;0.10;;;;;;;26.46;43.95;97185.63;5031959;28;20407;-68
2023/09/12 10:38:48;;;;;;;0.10;0.10;;;;;;;26.51;44.05;97185.50;5033453;28;20037;-68
2023/09/12 10:41:17;;;;;;;0.00;0.00;;;;;;;26.59;43.63;97196.53;5034585;28;20040;-68
2023/09/12 10:43:49;;;;;;;0.03;0.03;;;;;;;26.64;42.98;97187.41;5028566;28;20497;-69
2023/09/12 10:46:18;;;;;;;0.10;0.10;;;;;;;26.72;43.11;97196.81;5031552;28;20052;-69
2023/09/12 10:48:46;;;;;;;0.00;0.00;;;;;;;26.80;42.98;97202.34;5031324;28;20041;-68
2023/09/12 10:51:16;;;;;;;0.10;0.10;;;;;;;26.86;41.34;97195.66;5031716;28;20099;-69
2023/09/12 10:53:48;;;;;;;0.10;0.10;;;;;;;26.97;40.39;97196.25;5030930;28;20099;-69
2023/09/12 10:56:19;;;;;;;0.03;0.03;;;;;;;27.09;39.36;97201.19;5031261;28;20048;-69
2023/09/12 10:59:10;;;;;;;0.00;0.00;;;;;;;27.23;39.64;97193.72;5030870;28;20535;-68
2023/09/12 11:01:40;;;;;;;0.00;0.00;;;;;;;27.37;39.44;97191.72;5031124;28;20122;-68
2023/09/12 11:04:32;;;;;;;0.13;0.13;;;;;;;27.54;39.07;97191.00;5030815;28;20049;-69
2023/09/12 11:07:00;;;;;;;0.00;0.00;;;;;;;27.67;39.21;97192.88;5019242;28;20133;-67
2023/09/12 11:09:28;;;;;;;0.10;0.10;;;;;;;27.77;38.90;97182.44;5024809;28;20049;-67
2023/09/12 11:11:59;;;;;;;0.00;0.00;;;;;;;27.93;38.45;97185.56;5028669;28;20128;-67
2023/09/12 11:14:27;;;;;;;0.00;0.00;;;;;;;28.12;37.26;97185.34;5030309;28;20042;-67
2023/09/12 11:17:24;;;;;;;0.03;0.03;;;;;;;28.24;36.73;97188.28;5030817;28;20045;-67
2023/09/12 11:19:53;;;;;;;0.03;0.03;;;;;;;28.43;36.36;97183.34;5028978;28;20064;-67
2023/09/12 11:22:26;;;;;;;0.03;0.03;;;;;;;28.57;36.06;97185.13;5030820;28;20067;-67
2023/09/12 11:24:55;;;;;;;0.00;0.00;;;;;;;28.68;35.51;97184.50;5030508;28;20386;-68
2023/09/12 11:27:24;;;;;;;0.00;0.00;;;;;;;28.84;35.53;97174.72;5031204;28;20684;-67
2023/09/12 11:29:52;;;;;;;0.00;0.00;;;;;;;29.02;34.83;97181.00;5030737;28;20091;-69
2023/09/12 11:32:32;;;;;;;0.00;0.00;;;;;;;29.27;34.09;97175.81;5030756;28;20040;-68
2023/09/12 11:35:00;;;;;;;0.00;0.00;;;;;;;29.40;33.42;97175.66;5030404;28;20496;-68
2023/09/12 11:37:29;;;;;;;0.00;0.00;;;;;;;29.67;32.61;97170.91;5030504;28;20041;-68
2023/09/12 11:39:58;;;;;;;0.10;0.10;;;;;;;29.83;32.16;97172.78;5030673;28;20505;-69
2023/09/12 11:42:26;;;;;;;0.10;0.10;;;;;;;29.89;32.68;97170.66;5030909;28;20049;-68